»·PEaware :: N909CH KELP-KTUS

N909CH :: KELP-KTUS

FLIGHT INFORMATION

Flight Status: Arrived
Operator: Privately registered:
United States
More flights under this callsign
Pilot: Jeremy H. (10741)
Aircraft: SOCATA TBM-900
(TBM9)
More flights by this aircraft type
Origin: KELP El Paso Intl
United States
Destination: KTUS Tucson Intl
United States
More flights between these airports :: More routes between these airports
Route: SSO J104 TUS
File this flight plan on PilotEdge
Remarks:
Altitude:
(Current/Filed)
30,000ft
Speed:
(Current/Filed)
230kts
Departed: 17-Feb-19 02:25 PM
Arrived: 17-Feb-19 03:46 PM
Distance/Time
Traveled:
233nm/1:21
Distance/Time
To Go:
Arrived

Flight Plot

Page will automatically refresh every two minutes.

Flight plan parsing failed; only flown route is shown


Map Options




Map Legend


Flown Route
Filed Route
Departure Airport
Arrival Airport
Navaid (VOR, NDB)
Fix

Horizontal Profiles

Position Reports

Time Latitude Longitude Heading Altitude Ground
Speed
17-Feb-19 13:53 31.798076 -106.377243 312 3939ft 0kts
17-Feb-19 13:54 31.798076 -106.377243 312 3939ft 0kts
17-Feb-19 13:55 31.798076 -106.377243 312 3939ft 0kts
17-Feb-19 13:56 31.798076 -106.377243 312 3939ft 0kts
17-Feb-19 13:57 31.798076 -106.377243 312 3939ft 0kts
17-Feb-19 13:58 31.798076 -106.377243 312 3939ft 0kts
17-Feb-19 13:59 31.798076 -106.377243 312 3939ft 0kts
17-Feb-19 14:00 31.798076 -106.377243 312 3939ft 0kts
17-Feb-19 14:01 31.798076 -106.377243 312 3939ft 0kts
17-Feb-19 14:02 31.798076 -106.377243 312 3939ft 0kts
17-Feb-19 14:03 31.798076 -106.377243 312 3939ft 0kts
17-Feb-19 14:04 31.798076 -106.377243 312 3939ft 0kts
17-Feb-19 14:05 31.798076 -106.377243 312 3939ft 0kts
17-Feb-19 14:06 31.798076 -106.377243 312 3939ft 0kts
17-Feb-19 14:07 31.798076 -106.377243 312 3939ft 0kts
17-Feb-19 14:08 31.798076 -106.377243 312 3939ft 0kts
17-Feb-19 14:09 31.798076 -106.377243 312 3939ft 0kts
17-Feb-19 14:10 31.798076 -106.377243 312 3939ft 0kts
17-Feb-19 14:11 31.798076 -106.377243 312 3939ft 0kts
17-Feb-19 14:12 31.798076 -106.377243 312 3939ft 0kts
17-Feb-19 14:13 31.798076 -106.377243 312 3939ft 0kts
17-Feb-19 14:14 31.798076 -106.377243 312 3939ft 0kts
17-Feb-19 14:15 31.798076 -106.377243 312 3939ft 0kts
17-Feb-19 14:16 31.799153 -106.377589 2 3938ft 1kts
17-Feb-19 14:17 31.798886 -106.374989 93 3943ft 14kts
17-Feb-19 14:18 31.799260 -106.371218 63 3948ft 10kts
17-Feb-19 14:19 31.799364 -106.367626 93 3953ft 14kts
17-Feb-19 14:20 31.799147 -106.363292 93 3951ft 11kts
17-Feb-19 14:21 31.799065 -106.360504 77 3944ft 0kts
17-Feb-19 14:22 31.799423 -106.360347 357 3943ft 5kts
17-Feb-19 14:23 31.800319 -106.360324 5 3943ft 7kts
17-Feb-19 14:24 31.801285 -106.371844 271 4244ft 101kts
17-Feb-19 14:25 31.794954 -106.408187 209 6322ft 133kts
17-Feb-19 14:26 31.761243 -106.422247 208 8678ft 133kts
17-Feb-19 14:27 31.756063 -106.454913 279 11323ft 120kts
17-Feb-19 14:28 31.763337 -106.492767 278 13725ft 117kts
17-Feb-19 14:29 31.770342 -106.528895 276 16060ft 113kts
17-Feb-19 14:30 31.778384 -106.570926 277 17332ft 169kts
17-Feb-19 14:31 31.786359 -106.610959 271 20769ft 99kts
17-Feb-19 14:32 31.792033 -106.640740 269 23089ft 96kts
17-Feb-19 14:33 31.797542 -106.669336 266 25621ft 89kts
17-Feb-19 14:34 31.802738 -106.696295 263 28107ft 84kts
17-Feb-19 14:35 31.807660 -106.722287 262 30028ft 94kts
17-Feb-19 14:36 31.815810 -106.765376 268 30030ft 165kts
17-Feb-19 14:37 31.827008 -106.823292 269 30007ft 192kts
17-Feb-19 14:38 31.839165 -106.886563 269 30003ft 201kts
17-Feb-19 14:39 31.851511 -106.951248 270 29998ft 204kts
17-Feb-19 14:40 31.863997 -107.016686 270 29994ft 204kts
17-Feb-19 14:41 31.876397 -107.082110 270 29993ft 204kts
17-Feb-19 14:42 31.888806 -107.147613 270 29993ft 203kts
17-Feb-19 14:43 31.901092 -107.212911 270 29989ft 203kts
17-Feb-19 14:44 31.913343 -107.278004 270 29987ft 203kts
17-Feb-19 14:45 31.925564 -107.343159 270 29991ft 202kts
17-Feb-19 14:46 31.937696 -107.407971 270 29993ft 202kts
17-Feb-19 14:47 31.949738 -107.472581 270 29998ft 201kts
17-Feb-19 14:48 31.961764 -107.537365 270 29999ft 201kts
17-Feb-19 14:49 31.973742 -107.601943 270 29997ft 201kts
17-Feb-19 14:50 31.985590 -107.666116 270 30026ft 201kts
17-Feb-19 14:51 31.997592 -107.731279 269 30022ft 204kts
17-Feb-19 14:52 32.009667 -107.796998 269 29993ft 206kts
17-Feb-19 14:53 32.021773 -107.863181 269 29992ft 206kts
17-Feb-19 14:54 32.033857 -107.929365 269 29989ft 206kts
17-Feb-19 14:55 32.045847 -107.995265 269 29986ft 205kts
17-Feb-19 14:56 32.057787 -108.061198 270 29986ft 205kts
17-Feb-19 14:57 32.069695 -108.127099 270 29987ft 204kts
17-Feb-19 14:58 32.081561 -108.192829 270 29986ft 204kts
17-Feb-19 14:59 32.093365 -108.258561 269 29986ft 204kts
17-Feb-19 15:00 32.105102 -108.324040 270 29975ft 203kts
17-Feb-19 15:01 32.116742 -108.389293 270 29974ft 201kts
17-Feb-19 15:02 32.128263 -108.454027 270 29974ft 200kts
17-Feb-19 15:04 32.139737 -108.518644 269 29972ft 200kts
17-Feb-19 15:05 32.151125 -108.583142 270 29971ft 200kts
17-Feb-19 15:06 32.162515 -108.647705 270 29969ft 199kts
17-Feb-19 15:07 32.173770 -108.711671 269 29996ft 202kts
17-Feb-19 15:08 32.185265 -108.777375 269 29994ft 203kts
17-Feb-19 15:09 32.196745 -108.843019 269 29992ft 203kts
17-Feb-19 15:10 32.208239 -108.909031 269 29992ft 204kts
17-Feb-19 15:11 32.219633 -108.974656 269 29991ft 203kts
17-Feb-19 15:12 32.230960 -109.040385 270 29996ft 202kts
17-Feb-19 15:13 32.242237 -109.105663 271 29997ft 202kts
17-Feb-19 15:14 32.253448 -109.170825 271 29998ft 201kts
17-Feb-19 15:15 32.264574 -109.235770 271 29998ft 200kts
17-Feb-19 15:16 32.265365 -109.299813 260 29996ft 193kts
17-Feb-19 15:17 32.259545 -109.360699 260 29994ft 181kts
17-Feb-19 15:18 32.253558 -109.420883 260 29995ft 185kts
17-Feb-19 15:19 32.247545 -109.481232 260 29990ft 182kts
17-Feb-19 15:20 32.241444 -109.541427 260 28719ft 185kts
17-Feb-19 15:21 32.235107 -109.604115 260 26883ft 192kts
17-Feb-19 15:22 32.228684 -109.667294 260 25604ft 195kts
17-Feb-19 15:22 32.223176 -109.721121 260 24307ft 201kts
17-Feb-19 15:23 32.216350 -109.787765 260 22575ft 205kts
17-Feb-19 15:25 32.208529 -109.863685 260 21700ft 198kts
17-Feb-19 15:26 32.201838 -109.928102 260 20615ft 197kts
17-Feb-19 15:26 32.196219 -109.981927 261 19578ft 200kts
17-Feb-19 15:27 32.189197 -110.048980 261 18072ft 209kts
17-Feb-19 15:28 32.181903 -110.118235 261 16619ft 214kts
17-Feb-19 15:29 32.174343 -110.189655 261 15342ft 219kts
17-Feb-19 15:30 32.166866 -110.259890 261 14411ft 211kts
17-Feb-19 15:31 32.158945 -110.328957 251 13110ft 211kts
17-Feb-19 15:32 32.128131 -110.387153 239 12029ft 212kts
17-Feb-19 15:33 32.096377 -110.445985 239 10804ft 210kts
17-Feb-19 15:34 32.065147 -110.502992 239 10083ft 199kts
17-Feb-19 15:35 32.034869 -110.557909 239 9981ft 201kts
17-Feb-19 15:36 32.013036 -110.614474 259 9163ft 177kts
17-Feb-19 15:37 32.002591 -110.672111 259 7957ft 181kts
17-Feb-19 15:38 31.992255 -110.730268 264 6779ft 179kts
17-Feb-19 15:39 32.007022 -110.773863 305 5731ft 137kts
17-Feb-19 15:40 32.031510 -110.810384 305 5910ft 127kts
17-Feb-19 15:41 32.056748 -110.847395 305 5401ft 152kts
17-Feb-19 15:42 32.073092 -110.884782 310 4115ft 98kts
17-Feb-19 15:43 32.090494 -110.907648 306 3205ft 74kts
17-Feb-19 15:44 32.106137 -110.927662 314 2633ft 46kts
17-Feb-19 15:45 32.108205 -110.928738 42 2630ft 0kts
17-Feb-19 15:46 32.110181 -110.929927 315 2624ft 12kts
17-Feb-19 15:47 32.112824 -110.933064 314 2616ft 15kts
17-Feb-19 15:48 32.115830 -110.936546 315 2607ft 16kts
17-Feb-19 15:49 32.118662 -110.939864 315 2598ft 12kts
17-Feb-19 15:50 32.121638 -110.943350 315 2585ft 16kts
17-Feb-19 15:51 32.124713 -110.946797 347 2572ft 12kts
17-Feb-19 15:52 32.126862 -110.944339 317 2570ft 0kts
17-Feb-19 15:53 32.126862 -110.944339 317 2570ft 0kts
17-Feb-19 15:54 32.126862 -110.944339 317 2570ft 0kts

Navigation Log

Ident Type
Flight plan parsing failed, navigation log unavailable